Time;durP1;ratioP1;P1;durP2;ratioP2;P2;SDS_P1;SDS_P2;PMS_P1;PMS_P2;Temp;Humidity;BMP_temperature;BMP_pressure;BME280_temperature;BME280_humidity;BME280_pressure;Samples;Min_cycle;Max_cycle;Signal;HPM_P1;HPM_P2
2022/10/18 00:00:59;;;;;;;0.17;0.17;;;;;;;;;;5112178;28;20027;-86
2022/10/18 00:03:24;;;;;;;1.20;0.70;;;;;;;;;;5094123;28;20038;-88
2022/10/18 00:05:50;;;;;;;0.88;0.80;;;;;;;;;;5093000;28;20076;-87
2022/10/18 00:08:17;;;;;;;0.10;0.10;;;;;;;;;;5111078;28;20023;-88
2022/10/18 00:10:42;;;;;;;0.52;0.52;;;;;;;;;;5095208;28;20031;-87
2022/10/18 00:13:08;;;;;;;0.43;0.35;;;;;;;;;;5093757;28;20027;-86
2022/10/18 00:15:33;;;;;;;1.00;0.40;;;;;;;;;;5093202;28;20368;-86
2022/10/18 00:17:59;;;;;;;0.30;0.30;;;;;;;;;;5111904;28;20463;-87
2022/10/18 00:20:25;;;;;;;0.70;0.43;;;;;;;;;;5111111;28;20380;-88
2022/10/18 00:22:50;;;;;;;0.85;0.65;;;;;;;;;;5094535;28;20023;-86
2022/10/18 00:25:16;;;;;;;0.65;0.52;;;;;;;;;;5092832;28;20080;-87
2022/10/18 00:27:41;;;;;;;0.38;0.38;;;;;;;;;;5111606;28;20023;-86
2022/10/18 00:30:07;;;;;;;1.52;1.02;;;;;;;;;;5111059;28;20495;-87
2022/10/18 00:32:40;;;;;;;0.17;0.17;;;;;;;;;;5113144;28;20023;-87
2022/10/18 00:35:06;;;;;;;0.82;0.57;;;;;;;;;;5093521;28;20058;-85
2022/10/18 00:37:32;;;;;;;0.35;0.35;;;;;;;;;;5092587;28;20051;-85
2022/10/18 00:39:58;;;;;;;0.68;0.68;;;;;;;;;;5116484;28;20136;-88
2022/10/18 00:42:28;;;;;;;0.22;0.22;;;;;;;;;;5094552;28;20069;-88
2022/10/18 00:45:13;;;;;;;0.85;0.82;;;;;;;;;;5108890;28;20045;-86
2022/10/18 00:47:39;;;;;;;0.75;0.43;;;;;;;;;;5111966;28;20383;-88
2022/10/18 00:50:07;;;;;;;0.10;0.10;;;;;;;;;;5113365;28;20027;-86
2022/10/18 00:52:32;;;;;;;0.43;0.43;;;;;;;;;;5091691;28;20387;-87
2022/10/18 00:54:58;;;;;;;0.40;0.38;;;;;;;;;;5112912;28;20030;-86
2022/10/18 00:57:23;;;;;;;0.17;0.17;;;;;;;;;;5113194;28;20023;-86
2022/10/18 00:59:49;;;;;;;0.40;0.40;;;;;;;;;;5093873;28;20019;-86
2022/10/18 01:02:17;;;;;;;0.70;0.70;;;;;;;;;;5112987;28;20024;-85
2022/10/18 01:04:44;;;;;;;0.20;0.20;;;;;;;;;;5094613;28;20072;-87
2022/10/18 01:07:25;;;;;;;1.30;0.77;;;;;;;;;;5112541;28;20103;-84
2022/10/18 01:09:50;;;;;;;0.45;0.30;;;;;;;;;;5094683;28;20041;-88
2022/10/18 01:12:38;;;;;;;2.50;1.38;;;;;;;;;;5093533;28;20057;-86
2022/10/18 01:15:07;;;;;;;0.52;0.47;;;;;;;;;;5097312;28;20028;-86
2022/10/18 01:18:03;;;;;;;0.40;0.40;;;;;;;;;;5097304;28;20020;-86
2022/10/18 01:20:48;;;;;;;0.50;0.50;;;;;;;;;;5114167;28;20027;-87
2022/10/18 01:23:21;;;;;;;1.10;0.43;;;;;;;;;;5097178;28;20034;-85
2022/10/18 01:25:49;;;;;;;0.75;0.52;;;;;;;;;;5097069;28;20031;-88
2022/10/18 01:28:17;;;;;;;0.40;0.40;;;;;;;;;;5113095;28;20028;-86
2022/10/18 01:31:00;;;;;;;1.23;1.00;;;;;;;;;;5097459;28;20375;-85
2022/10/18 01:33:31;;;;;;;0.60;0.60;;;;;;;;;;5094596;28;20476;-87
2022/10/18 01:36:07;;;;;;;1.27;1.02;;;;;;;;;;5097532;28;20492;-86
2022/10/18 01:38:35;;;;;;;0.75;0.70;;;;;;;;;;5115336;28;20039;-86
2022/10/18 01:41:03;;;;;;;0.98;0.90;;;;;;;;;;5115227;28;20053;-88
2022/10/18 01:43:29;;;;;;;0.65;0.65;;;;;;;;;;5096984;28;20019;-89
2022/10/18 01:45:56;;;;;;;0.75;0.63;;;;;;;;;;5094360;28;20031;-87
2022/10/18 01:48:22;;;;;;;1.40;0.60;;;;;;;;;;5115208;28;20020;-85
2022/10/18 01:50:48;;;;;;;0.63;0.63;;;;;;;;;;5095370;28;20914;-84
2022/10/18 01:53:43;;;;;;;1.10;1.00;;;;;;;;;;5115151;28;20079;-86
2022/10/18 01:56:20;;;;;;;0.70;0.70;;;;;;;;;;5092949;28;20093;-85
2022/10/18 01:58:54;;;;;;;0.70;0.70;;;;;;;;;;5096649;28;20023;-85
2022/10/18 02:01:32;;;;;;;0.80;0.55;;;;;;;;;;5095354;28;20479;-85
2022/10/18 02:04:06;;;;;;;0.45;0.45;;;;;;;;;;5094428;28;20084;-86
2022/10/18 02:06:41;;;;;;;0.88;0.82;;;;;;;;;;5096480;28;20129;-86
2022/10/18 02:09:11;;;;;;;0.52;0.52;;;;;;;;;;5095881;28;20034;-86
2022/10/18 02:11:38;;;;;;;0.55;0.55;;;;;;;;;;5114635;28;20055;-85
2022/10/18 02:14:11;;;;;;;1.70;0.70;;;;;;;;;;5096587;28;20379;-85
2022/10/18 02:16:48;;;;;;;0.50;0.50;;;;;;;;;;5114739;27;20027;-86
2022/10/18 02:19:29;;;;;;;0.47;0.47;;;;;;;;;;5094982;28;20028;-85
2022/10/18 02:21:56;;;;;;;0.95;0.95;;;;;;;;;;5096394;28;20031;-85
2022/10/18 02:24:25;;;;;;;0.50;0.50;;;;;;;;;;5114467;28;20035;-86
2022/10/18 02:26:50;;;;;;;0.70;0.52;;;;;;;;;;5096871;28;20132;-86
2022/10/18 02:29:16;;;;;;;0.43;0.43;;;;;;;;;;5095509;28;20403;-86
2022/10/18 02:31:48;;;;;;;1.33;0.55;;;;;;;;;;5079078;28;20107;-83
2022/10/18 02:34:34;;;;;;;0.60;0.60;;;;;;;;;;5095871;28;20038;-85
2022/10/18 02:37:01;;;;;;;0.60;0.60;;;;;;;;;;5112912;28;20051;-84
2022/10/18 02:39:33;;;;;;;0.20;0.20;;;;;;;;;;5112458;28;20380;-86
2022/10/18 02:41:59;;;;;;;2.25;1.02;;;;;;;;;;5096569;28;20605;-85
2022/10/18 02:44:25;;;;;;;0.32;0.30;;;;;;;;;;5098070;28;20107;-85
2022/10/18 02:46:51;;;;;;;0.57;0.57;;;;;;;;;;5114594;28;20490;-86
2022/10/18 02:49:16;;;;;;;1.27;0.50;;;;;;;;;;5114301;28;20500;-86
2022/10/18 02:51:45;;;;;;;2.55;0.40;;;;;;;;;;5096018;28;20149;-86
2022/10/18 02:54:10;;;;;;;1.58;0.80;;;;;;;;;;5094917;28;20497;-85
2022/10/18 02:56:36;;;;;;;4.53;0.55;;;;;;;;;;5114438;28;20051;-86
2022/10/18 02:59:02;;;;;;;1.27;0.38;;;;;;;;;;5095721;28;20076;-86
2022/10/18 03:01:27;;;;;;;0.73;0.68;;;;;;;;;;5095612;28;20019;-87
2022/10/18 03:03:53;;;;;;;0.40;0.40;;;;;;;;;;5113988;28;20027;-86
2022/10/18 03:06:18;;;;;;;2.80;1.45;;;;;;;;;;5095549;28;20062;-86
2022/10/18 03:08:44;;;;;;;0.60;0.60;;;;;;;;;;5095914;28;20031;-86
2022/10/18 03:11:10;;;;;;;1.55;1.23;;;;;;;;;;5092720;28;20038;-89
2022/10/18 03:13:35;;;;;;;0.73;0.50;;;;;;;;;;5095548;28;20024;-88
2022/10/18 03:16:01;;;;;;;0.45;0.45;;;;;;;;;;5113849;28;20500;-86
2022/10/18 03:18:26;;;;;;;0.60;0.60;;;;;;;;;;5095676;28;20379;-90
2022/10/18 03:20:52;;;;;;;0.40;0.40;;;;;;;;;;5095263;28;20096;-86
2022/10/18 03:23:17;;;;;;;1.08;0.80;;;;;;;;;;5113846;28;20024;-87
2022/10/18 03:25:43;;;;;;;0.10;0.10;;;;;;;;;;5095465;28;20027;-87
2022/10/18 03:28:08;;;;;;;1.05;0.95;;;;;;;;;;5112693;28;20032;-88
2022/10/18 03:30:34;;;;;;;0.82;0.82;;;;;;;;;;5113582;28;20031;-87
2022/10/18 03:32:59;;;;;;;0.20;0.20;;;;;;;;;;5095191;28;20016;-87
2022/10/18 03:35:25;;;;;;;1.05;0.95;;;;;;;;;;5113048;28;20031;-87
2022/10/18 03:37:50;;;;;;;1.50;1.15;;;;;;;;;;5096254;28;20079;-88
2022/10/18 03:40:16;;;;;;;0.40;0.40;;;;;;;;;;5117342;27;20030;-87
2022/10/18 03:42:41;;;;;;;0.60;0.60;;;;;;;;;;5092496;28;20019;-86
2022/10/18 03:45:07;;;;;;;0.50;0.50;;;;;;;;;;5094880;28;20058;-88
2022/10/18 03:47:32;;;;;;;1.70;1.13;;;;;;;;;;5112371;28;20024;-86
2022/10/18 03:49:58;;;;;;;0.75;0.75;;;;;;;;;;5113007;28;20103;-87
2022/10/18 03:52:23;;;;;;;1.60;0.88;;;;;;;;;;5113055;28;20016;-87
2022/10/18 03:54:49;;;;;;;0.73;0.73;;;;;;;;;;5113013;28;20020;-86
2022/10/18 03:57:14;;;;;;;2.58;1.25;;;;;;;;;;5093961;28;20038;-89
2022/10/18 03:59:39;;;;;;;1.13;0.50;;;;;;;;;;5112650;28;20050;-87
2022/10/18 04:02:05;;;;;;;1.35;0.88;;;;;;;;;;5110151;28;20095;-86
2022/10/18 04:04:30;;;;;;;1.25;1.05;;;;;;;;;;5110787;28;20032;-86
2022/10/18 04:06:56;;;;;;;0.50;0.47;;;;;;;;;;5094804;28;20215;-85
2022/10/18 04:09:21;;;;;;;0.28;0.28;;;;;;;;;;5092445;28;20022;-85
2022/10/18 04:11:49;;;;;;;1.55;0.55;;;;;;;;;;5113107;28;20383;-86
2022/10/18 04:14:15;;;;;;;1.92;1.30;;;;;;;;;;5094091;28;20116;-87
2022/10/18 04:16:40;;;;;;;0.43;0.43;;;;;;;;;;5112932;28;20059;-90
2022/10/18 04:19:06;;;;;;;0.68;0.63;;;;;;;;;;5108196;28;20356;-83
2022/10/18 04:21:31;;;;;;;0.55;0.55;;;;;;;;;;5111791;28;20019;-85
2022/10/18 04:23:57;;;;;;;0.82;0.82;;;;;;;;;;5091518;28;20032;-85
2022/10/18 04:26:22;;;;;;;1.23;0.88;;;;;;;;;;5110002;28;20027;-84
2022/10/18 04:28:47;;;;;;;0.40;0.40;;;;;;;;;;5092752;28;20046;-83
2022/10/18 04:31:13;;;;;;;0.75;0.75;;;;;;;;;;5107706;28;20023;-84
2022/10/18 04:33:38;;;;;;;0.32;0.32;;;;;;;;;;5090864;28;20095;-85
2022/10/18 04:36:04;;;;;;;1.48;1.05;;;;;;;;;;5111551;28;20035;-85
2022/10/18 04:38:29;;;;;;;2.85;1.35;;;;;;;;;;5091524;28;21465;-86
2022/10/18 04:40:55;;;;;;;1.38;0.88;;;;;;;;;;5091687;28;20092;-85
2022/10/18 04:43:20;;;;;;;0.65;0.65;;;;;;;;;;5092044;28;20020;-84
2022/10/18 04:45:47;;;;;;;1.02;0.95;;;;;;;;;;5093783;28;20020;-85
2022/10/18 04:48:21;;;;;;;1.80;0.60;;;;;;;;;;5097129;28;20035;-82
2022/10/18 04:50:48;;;;;;;0.65;0.65;;;;;;;;;;5116465;28;20032;-85
2022/10/18 04:53:14;;;;;;;1.35;1.13;;;;;;;;;;5093801;28;20027;-85
2022/10/18 04:55:49;;;;;;;0.88;0.85;;;;;;;;;;5097759;28;20027;-86
2022/10/18 04:58:15;;;;;;;0.63;0.63;;;;;;;;;;5115998;28;20046;-85
2022/10/18 05:00:41;;;;;;;1.10;1.00;;;;;;;;;;5113100;28;20039;-84
2022/10/18 05:03:07;;;;;;;0.68;0.57;;;;;;;;;;5111479;28;20028;-84
2022/10/18 05:05:33;;;;;;;1.23;0.88;;;;;;;;;;5094549;28;20172;-84
2022/10/18 05:07:59;;;;;;;0.55;0.55;;;;;;;;;;5095767;28;20027;-85
2022/10/18 05:10:24;;;;;;;0.60;0.60;;;;;;;;;;5093735;28;20027;-86
2022/10/18 05:12:50;;;;;;;1.45;0.85;;;;;;;;;;5096080;28;20052;-85
2022/10/18 05:15:15;;;;;;;1.27;0.90;;;;;;;;;;5097305;28;20047;-83
2022/10/18 05:17:40;;;;;;;3.53;1.52;;;;;;;;;;5097429;28;20023;-83
2022/10/18 05:20:06;;;;;;;1.65;0.65;;;;;;;;;;5115733;28;20031;-84
2022/10/18 05:22:31;;;;;;;0.65;0.65;;;;;;;;;;5096090;28;20048;-83
2022/10/18 05:24:57;;;;;;;0.60;0.60;;;;;;;;;;5114246;28;20027;-84
2022/10/18 05:27:22;;;;;;;0.30;0.30;;;;;;;;;;5096412;28;20023;-83
2022/10/18 05:29:48;;;;;;;0.70;0.70;;;;;;;;;;5091868;28;20044;-83
2022/10/18 05:32:13;;;;;;;0.80;0.80;;;;;;;;;;5094844;28;20054;-83
2022/10/18 05:34:39;;;;;;;0.70;0.65;;;;;;;;;;5094113;28;20093;-83
2022/10/18 05:37:05;;;;;;;0.70;0.70;;;;;;;;;;5091166;28;20073;-83
2022/10/18 05:39:31;;;;;;;2.90;1.00;;;;;;;;;;5093663;28;20388;-82
2022/10/18 05:41:57;;;;;;;3.63;2.33;;;;;;;;;;5093298;28;20024;-83
2022/10/18 05:44:22;;;;;;;1.63;1.15;;;;;;;;;;5093896;28;20024;-85
2022/10/18 05:46:47;;;;;;;2.42;1.92;;;;;;;;;;5092996;28;20135;-84
2022/10/18 05:49:13;;;;;;;0.98;0.98;;;;;;;;;;5094599;28;20024;-83
2022/10/18 05:51:38;;;;;;;2.40;1.98;;;;;;;;;;5094854;28;20361;-83
2022/10/18 05:54:04;;;;;;;3.35;1.90;;;;;;;;;;5093122;28;20468;-84
2022/10/18 05:56:29;;;;;;;1.67;1.38;;;;;;;;;;5094073;28;20039;-83
2022/10/18 05:58:55;;;;;;;5.15;3.40;;;;;;;;;;5093971;28;20032;-83
2022/10/18 06:01:21;;;;;;;3.38;2.72;;;;;;;;;;5097018;28;20028;-84
2022/10/18 06:03:46;;;;;;;0.98;0.93;;;;;;;;;;5093681;28;20111;-84
2022/10/18 06:06:13;;;;;;;4.43;2.55;;;;;;;;;;5095798;28;20044;-83
2022/10/18 06:08:41;;;;;;;2.40;2.20;;;;;;;;;;5092240;28;20103;-84
2022/10/18 06:11:11;;;;;;;2.15;1.95;;;;;;;;;;5093748;28;20816;-83
2022/10/18 06:13:42;;;;;;;4.05;2.38;;;;;;;;;;5091148;28;20119;-84
2022/10/18 06:16:14;;;;;;;5.95;2.88;;;;;;;;;;5093451;28;20426;-85
2022/10/18 06:18:39;;;;;;;1.65;1.55;;;;;;;;;;5094275;28;20053;-84
2022/10/18 06:21:05;;;;;;;4.50;2.80;;;;;;;;;;5091357;28;20063;-84
2022/10/18 06:23:30;;;;;;;4.10;1.95;;;;;;;;;;5092651;28;20099;-84
2022/10/18 06:26:08;;;;;;;5.88;2.25;;;;;;;;;;5088700;28;20047;-84
2022/10/18 06:28:35;;;;;;;2.80;1.60;;;;;;;;;;5096436;28;20433;-83
2022/10/18 06:31:00;;;;;;;4.22;1.85;;;;;;;;;;5093383;28;20394;-85
2022/10/18 06:33:26;;;;;;;3.72;2.20;;;;;;;;;;5095551;28;20027;-84
2022/10/18 06:36:14;;;;;;;4.05;1.45;;;;;;;;;;5113290;28;20031;-85
2022/10/18 06:38:40;;;;;;;3.25;1.77;;;;;;;;;;5093708;28;20020;-84
2022/10/18 06:41:06;;;;;;;2.95;2.20;;;;;;;;;;5114159;28;20023;-84
2022/10/18 06:43:32;;;;;;;2.72;2.33;;;;;;;;;;5095169;28;20027;-84
2022/10/18 06:46:02;;;;;;;2.80;1.92;;;;;;;;;;5093834;28;20088;-86
2022/10/18 06:48:27;;;;;;;2.58;2.17;;;;;;;;;;5096570;28;20020;-83
2022/10/18 06:50:58;;;;;;;2.25;2.00;;;;;;;;;;5086099;28;20061;-86
2022/10/18 06:53:27;;;;;;;2.40;2.20;;;;;;;;;;5113731;28;20110;-85
2022/10/18 06:55:59;;;;;;;3.08;2.75;;;;;;;;;;5112123;28;20098;-83
2022/10/18 06:58:25;;;;;;;3.28;2.88;;;;;;;;;;5107342;28;20527;-83
2022/10/18 07:00:50;;;;;;;1.80;1.70;;;;;;;;;;5093509;28;20031;-83
2022/10/18 07:03:15;;;;;;;2.38;1.27;;;;;;;;;;5092693;28;20028;-83
2022/10/18 07:05:41;;;;;;;3.95;2.35;;;;;;;;;;5111646;28;20448;-83
2022/10/18 07:08:06;;;;;;;4.35;2.92;;;;;;;;;;5109377;28;20072;-84
2022/10/18 07:10:32;;;;;;;5.18;3.45;;;;;;;;;;5108975;28;20459;-83
2022/10/18 07:12:57;;;;;;;2.00;1.10;;;;;;;;;;5092597;28;21408;-81
2022/10/18 07:15:23;;;;;;;2.45;2.25;;;;;;;;;;5093953;28;20059;-84
2022/10/18 07:17:49;;;;;;;2.17;1.80;;;;;;;;;;5112029;28;20027;-82
2022/10/18 07:20:15;;;;;;;12.95;10.00;;;;;;;;;;5092638;28;20039;-83
2022/10/18 07:22:40;;;;;;;4.00;2.97;;;;;;;;;;5111511;28;20023;-82
2022/10/18 07:25:06;;;;;;;3.00;2.60;;;;;;;;;;5112915;28;20032;-83
2022/10/18 07:27:36;;;;;;;3.28;1.40;;;;;;;;;;5092276;28;20479;-84
2022/10/18 07:30:17;;;;;;;2.45;1.60;;;;;;;;;;5109714;28;20460;-83
2022/10/18 07:32:42;;;;;;;2.78;2.33;;;;;;;;;;5094765;28;20090;-87
2022/10/18 07:35:08;;;;;;;2.45;1.83;;;;;;;;;;5094538;28;20042;-84
2022/10/18 07:37:33;;;;;;;1.77;1.25;;;;;;;;;;5107922;28;20031;-84
2022/10/18 07:39:58;;;;;;;1.48;1.38;;;;;;;;;;5111581;28;20034;-83
2022/10/18 07:42:24;;;;;;;2.47;2.08;;;;;;;;;;5093695;28;20020;-83
2022/10/18 07:44:49;;;;;;;4.47;1.98;;;;;;;;;;5112760;28;20027;-82
2022/10/18 07:47:15;;;;;;;4.35;2.10;;;;;;;;;;5091199;28;20028;-81
2022/10/18 07:49:40;;;;;;;3.15;2.28;;;;;;;;;;5111731;28;20455;-83
2022/10/18 07:52:05;;;;;;;4.85;2.22;;;;;;;;;;5106857;28;20483;-82
2022/10/18 07:54:31;;;;;;;5.07;1.70;;;;;;;;;;5109488;28;20027;-81
2022/10/18 07:56:56;;;;;;;4.07;2.30;;;;;;;;;;5106437;28;20096;-83
2022/10/18 07:59:22;;;;;;;5.05;3.92;;;;;;;;;;5110318;28;20062;-82
2022/10/18 08:01:47;;;;;;;3.33;3.00;;;;;;;;;;5093137;28;20095;-84
2022/10/18 08:04:13;;;;;;;5.80;3.40;;;;;;;;;;5113543;27;20039;-87
2022/10/18 08:06:38;;;;;;;2.75;1.73;;;;;;;;;;5112745;28;20027;-87
2022/10/18 08:09:04;;;;;;;1.83;1.42;;;;;;;;;;5095502;28;20027;-87
2022/10/18 08:11:29;;;;;;;4.32;2.95;;;;;;;;;;5093699;28;20395;-87
2022/10/18 08:13:55;;;;;;;3.15;2.38;;;;;;;;;;5112171;28;20025;-86
2022/10/18 08:16:26;;;;;;;3.10;2.17;;;;;;;;;;5093511;28;20026;-87
2022/10/18 08:18:52;;;;;;;2.35;1.88;;;;;;;;;;5112911;28;20023;-87
2022/10/18 08:21:19;;;;;;;3.78;2.55;;;;;;;;;;5093990;28;20391;-88
2022/10/18 08:23:45;;;;;;;2.10;1.63;;;;;;;;;;5092617;28;20387;-87
2022/10/18 08:26:13;;;;;;;3.10;2.50;;;;;;;;;;5111410;28;20028;-88
2022/10/18 08:28:39;;;;;;;5.10;2.30;;;;;;;;;;5113340;28;20071;-89
2022/10/18 08:31:06;;;;;;;2.72;2.35;;;;;;;;;;5093639;28;20062;-87
2022/10/18 08:33:34;;;;;;;1.95;1.80;;;;;;;;;;5094475;28;20024;-86
2022/10/18 08:36:01;;;;;;;2.63;1.60;;;;;;;;;;5092502;28;20069;-88
2022/10/18 08:38:31;;;;;;;2.95;2.05;;;;;;;;;;5110003;28;20034;-87
2022/10/18 08:41:28;;;;;;;3.58;2.17;;;;;;;;;;5111195;28;20055;-87
2022/10/18 08:44:18;;;;;;;4.45;2.85;;;;;;;;;;5051191;28;20139;-89
2022/10/18 08:46:46;;;;;;;2.87;2.43;;;;;;;;;;5109999;28;20331;-87
2022/10/18 08:49:27;;;;;;;8.60;3.00;;;;;;;;;;5092428;28;20187;-88
2022/10/18 08:51:52;;;;;;;6.07;2.75;;;;;;;;;;5095178;28;20053;-87
2022/10/18 08:54:38;;;;;;;2.35;2.00;;;;;;;;;;5093635;28;20108;-88
2022/10/18 08:57:12;;;;;;;2.92;1.88;;;;;;;;;;5110878;28;20028;-86
2022/10/18 08:59:39;;;;;;;2.80;1.92;;;;;;;;;;5111756;28;20490;-88
2022/10/18 09:02:40;;;;;;;1.58;1.45;;;;;;;;;;5113452;28;20019;-87
2022/10/18 09:05:33;;;;;;;1.85;1.60;;;;;;;;;;5085765;28;20043;-87
2022/10/18 09:08:20;;;;;;;4.97;3.03;;;;;;;;;;5111544;28;20775;-89
2022/10/18 09:11:23;;;;;;;3.78;2.08;;;;;;;;;;5091669;28;20028;-89
2022/10/18 09:14:16;;;;;;;2.95;2.05;;;;;;;;;;5089159;28;20020;-86
2022/10/18 09:16:59;;;;;;;4.25;2.20;;;;;;;;;;5111202;28;20024;-87
2022/10/18 09:20:02;;;;;;;4.45;2.47;;;;;;;;;;5110381;28;20084;-85
2022/10/18 09:22:39;;;;;;;2.38;1.60;;;;;;;;;;5110646;28;20680;-88
2022/10/18 09:25:09;;;;;;;3.00;2.00;;;;;;;;;;5109410;28;20032;-87
2022/10/18 09:27:47;;;;;;;2.95;1.90;;;;;;;;;;5093829;28;20080;-87
2022/10/18 09:30:48;;;;;;;3.60;2.45;;;;;;;;;;5093171;28;20387;-87
2022/10/18 09:33:34;;;;;;;2.67;1.75;;;;;;;;;;5092742;28;20379;-87
2022/10/18 09:36:02;;;;;;;4.63;1.67;;;;;;;;;;5115699;28;20031;-85
2022/10/18 09:38:33;;;;;;;5.45;1.77;;;;;;;;;;5115291;28;20089;-85
2022/10/18 09:41:25;;;;;;;1.50;1.40;;;;;;;;;;5112112;28;20042;-85
2022/10/18 09:43:57;;;;;;;4.05;1.88;;;;;;;;;;5082340;28;20503;-85
2022/10/18 09:46:26;;;;;;;3.88;2.45;;;;;;;;;;5114865;28;20452;-84
2022/10/18 09:48:57;;;;;;;3.30;2.08;;;;;;;;;;5097209;28;20081;-86
2022/10/18 09:51:27;;;;;;;3.20;2.05;;;;;;;;;;5094725;28;20047;-85
2022/10/18 09:54:06;;;;;;;1.90;1.70;;;;;;;;;;5096929;28;20035;-87
2022/10/18 09:56:47;;;;;;;4.95;2.15;;;;;;;;;;5096827;28;20031;-85
2022/10/18 09:59:21;;;;;;;3.83;2.70;;;;;;;;;;5096503;28;20387;-85
2022/10/18 10:01:46;;;;;;;2.67;1.48;;;;;;;;;;5095522;28;20027;-87
2022/10/18 10:04:13;;;;;;;2.45;1.42;;;;;;;;;;5094235;28;20069;-86
2022/10/18 10:06:52;;;;;;;5.65;3.15;;;;;;;;;;5095140;28;21031;-85
2022/10/18 10:09:25;;;;;;;4.55;2.75;;;;;;;;;;5093759;28;20033;-85
2022/10/18 10:11:51;;;;;;;3.55;2.38;;;;;;;;;;5113867;28;20479;-84
2022/10/18 10:14:18;;;;;;;3.40;2.70;;;;;;;;;;5093255;28;20066;-85
2022/10/18 10:16:46;;;;;;;3.55;2.20;;;;;;;;;;5109663;28;20019;-84
2022/10/18 10:19:19;;;;;;;5.13;2.17;;;;;;;;;;5108395;28;20480;-84
2022/10/18 10:21:47;;;;;;;6.30;3.35;;;;;;;;;;5112150;28;20055;-84
2022/10/18 10:24:49;;;;;;;1.95;1.73;;;;;;;;;;5092721;28;20012;-85
2022/10/18 10:27:42;;;;;;;3.15;2.25;;;;;;;;;;5080848;28;20036;-84
2022/10/18 10:30:21;;;;;;;7.70;2.33;;;;;;;;;;5114202;28;20055;-84
2022/10/18 10:32:49;;;;;;;3.77;2.13;;;;;;;;;;5110253;28;20097;-88
2022/10/18 10:35:23;;;;;;;2.47;1.63;;;;;;;;;;5114023;28;20115;-87
2022/10/18 10:37:53;;;;;;;2.63;2.22;;;;;;;;;;5113114;28;20102;-86
2022/10/18 10:40:25;;;;;;;4.78;2.05;;;;;;;;;;5112692;28;20035;-87
2022/10/18 10:42:50;;;;;;;3.85;2.53;;;;;;;;;;5112678;28;20023;-87
2022/10/18 10:45:15;;;;;;;5.47;2.05;;;;;;;;;;5094728;28;20074;-89
2022/10/18 10:47:41;;;;;;;3.58;2.33;;;;;;;;;;5114402;28;20028;-88
2022/10/18 10:50:21;;;;;;;4.57;2.53;;;;;;;;;;5095800;28;20058;-89
2022/10/18 10:52:47;;;;;;;4.20;2.03;;;;;;;;;;5094615;28;20076;-87
2022/10/18 10:55:23;;;;;;;4.30;2.17;;;;;;;;;;5111466;28;20024;-88
2022/10/18 10:57:51;;;;;;;2.53;1.75;;;;;;;;;;5095285;28;20081;-86
2022/10/18 11:00:42;;;;;;;2.78;1.73;;;;;;;;;;5095728;28;20099;-86
2022/10/18 11:03:13;;;;;;;1.65;1.08;;;;;;;;;;5092675;28;20100;-84
2022/10/18 11:05:45;;;;;;;1.85;1.50;;;;;;;;;;5112293;28;20472;-87
2022/10/18 11:08:15;;;;;;;4.22;1.90;;;;;;;;;;5092347;28;20077;-85
2022/10/18 11:11:00;;;;;;;;;;;;;;;;;;5094429;28;20038;-87
2022/10/18 11:13:53;;;;;;;1.75;1.23;;;;;;;;;;5094950;28;20652;-83
2022/10/18 11:16:32;;;;;;;2.00;1.08;;;;;;;;;;5094510;28;20032;-84
2022/10/18 11:19:10;;;;;;;2.10;1.70;;;;;;;;;;5113230;28;20115;-85
2022/10/18 11:21:37;;;;;;;3.28;1.23;;;;;;;;;;5111360;28;20096;-87
2022/10/18 11:24:02;;;;;;;2.33;1.30;;;;;;;;;;5113164;28;20142;-85
2022/10/18 11:26:34;;;;;;;2.25;1.45;;;;;;;;;;5110991;28;20510;-85
2022/10/18 11:29:18;;;;;;;2.75;1.27;;;;;;;;;;5113659;28;20047;-86
2022/10/18 11:32:20;;;;;;;1.75;1.25;;;;;;;;;;5092149;28;20093;-85
2022/10/18 11:34:51;;;;;;;3.78;1.40;;;;;;;;;;5103192;28;20101;-86
2022/10/18 11:37:46;;;;;;;2.78;1.95;;;;;;;;;;5112495;28;20100;-86
2022/10/18 11:40:30;;;;;;;1.52;1.08;;;;;;;;;;5094419;28;20023;-85
2022/10/18 11:43:24;;;;;;;2.22;1.38;;;;;;;;;;5110385;28;21733;-86
2022/10/18 11:46:05;;;;;;;2.28;1.40;;;;;;;;;;5091992;28;20042;-85
2022/10/18 11:48:34;;;;;;;0.70;0.50;;;;;;;;;;5094272;28;20027;-85
2022/10/18 11:51:08;;;;;;;1.25;0.85;;;;;;;;;;5093469;28;20387;-85
2022/10/18 11:54:09;;;;;;;1.17;0.60;;;;;;;;;;5112007;28;20107;-88
2022/10/18 11:56:46;;;;;;;1.45;0.70;;;;;;;;;;5087558;28;20395;-86
2022/10/18 11:59:36;;;;;;;0.65;0.40;;;;;;;;;;5110935;28;20384;-84
2022/10/18 12:02:39;;;;;;;7.07;1.08;;;;;;;;;;5094707;28;20042;-87
2022/10/18 12:05:06;;;;;;;0.70;0.47;;;;;;;;;;5112770;28;20020;-86
2022/10/18 12:07:40;;;;;;;0.65;0.50;;;;;;;;;;5111821;28;20027;-85
2022/10/18 12:10:13;;;;;;;2.80;0.90;;;;;;;;;;5094897;28;20463;-85
2022/10/18 12:12:49;;;;;;;1.55;1.02;;;;;;;;;;5111888;28;20081;-83
2022/10/18 12:15:14;;;;;;;5.07;1.80;;;;;;;;;;5094529;28;20028;-84
2022/10/18 12:17:43;;;;;;;1.27;0.80;;;;;;;;;;5093743;28;20449;-84
2022/10/18 12:20:18;;;;;;;1.05;0.70;;;;;;;;;;5112787;28;20027;-86
2022/10/18 12:22:59;;;;;;;0.50;0.50;;;;;;;;;;5092290;28;20111;-86
2022/10/18 12:25:32;;;;;;;2.35;0.82;;;;;;;;;;5113406;28;20490;-88
2022/10/18 12:28:19;;;;;;;1.65;0.73;;;;;;;;;;5111745;28;20028;-85
2022/10/18 12:30:57;;;;;;;1.30;0.68;;;;;;;;;;5094492;28;20035;-85
2022/10/18 12:33:28;;;;;;;1.17;0.68;;;;;;;;;;5110953;28;20031;-84
2022/10/18 12:35:56;;;;;;;0.47;0.35;;;;;;;;;;5094140;28;20031;-85
2022/10/18 12:38:35;;;;;;;1.17;0.73;;;;;;;;;;5112332;28;20384;-86
2022/10/18 12:41:02;;;;;;;1.33;0.87;;;;;;;;;;5111701;28;20027;-85
2022/10/18 12:43:35;;;;;;;1.30;0.60;;;;;;;;;;5093698;28;20024;-84
2022/10/18 12:46:03;;;;;;;1.52;0.73;;;;;;;;;;5112900;28;20058;-86
2022/10/18 12:48:41;;;;;;;1.35;0.70;;;;;;;;;;5095100;28;20019;-87
2022/10/18 12:51:14;;;;;;;0.57;0.57;;;;;;;;;;5111445;28;20031;-84
2022/10/18 12:53:41;;;;;;;0.40;0.40;;;;;;;;;;5112225;28;20116;-85
2022/10/18 12:56:28;;;;;;;1.02;0.73;;;;;;;;;;5112350;28;20861;-84
2022/10/18 12:59:15;;;;;;;1.30;1.08;;;;;;;;;;5112041;28;20054;-85
2022/10/18 13:01:49;;;;;;;0.60;0.60;;;;;;;;;;5093540;28;20023;-83
2022/10/18 13:04:27;;;;;;;2.78;0.50;;;;;;;;;;5111333;28;20053;-84
2022/10/18 13:07:04;;;;;;;1.15;0.70;;;;;;;;;;5094068;28;20495;-86
2022/10/18 13:09:33;;;;;;;0.70;0.57;;;;;;;;;;5096999;28;20106;-86
2022/10/18 13:12:08;;;;;;;0.68;0.60;;;;;;;;;;5096951;28;20030;-86
2022/10/18 13:14:55;;;;;;;4.25;1.50;;;;;;;;;;5097490;28;20028;-87
2022/10/18 13:17:52;;;;;;;1.98;1.08;;;;;;;;;;5097202;28;20356;-84
2022/10/18 13:20:41;;;;;;;2.05;1.08;;;;;;;;;;5114880;28;20024;-86
2022/10/18 13:23:44;;;;;;;1.95;1.25;;;;;;;;;;5115939;28;20027;-86
2022/10/18 13:26:17;;;;;;;3.00;1.85;;;;;;;;;;5097302;28;20138;-87
2022/10/18 13:29:15;;;;;;;3.63;1.77;;;;;;;;;;5097165;28;20116;-86
2022/10/18 13:31:51;;;;;;;3.05;1.67;;;;;;;;;;5113345;28;20096;-86
2022/10/18 13:34:22;;;;;;;4.20;2.05;;;;;;;;;;5096886;28;20031;-86
2022/10/18 13:37:03;;;;;;;2.58;1.63;;;;;;;;;;5111595;28;20029;-85
2022/10/18 13:39:30;;;;;;;2.60;1.13;;;;;;;;;;5115374;28;20023;-85
2022/10/18 13:41:56;;;;;;;1.30;1.10;;;;;;;;;;5115278;28;20518;-85
2022/10/18 13:44:36;;;;;;;1.13;1.02;;;;;;;;;;5096600;28;20023;-85
2022/10/18 13:47:01;;;;;;;1.13;0.88;;;;;;;;;;5115286;28;20059;-85
2022/10/18 13:49:38;;;;;;;1.65;0.93;;;;;;;;;;5115077;28;20111;-86
2022/10/18 13:52:25;;;;;;;2.13;1.23;;;;;;;;;;5096806;28;20356;-87
2022/10/18 13:55:04;;;;;;;0.88;0.68;;;;;;;;;;5113152;28;20058;-87
2022/10/18 13:58:04;;;;;;;0.57;0.57;;;;;;;;;;5096888;28;20382;-89
2022/10/18 14:00:47;;;;;;;1.80;0.90;;;;;;;;;;5113804;28;20084;-87
2022/10/18 14:03:31;;;;;;;1.33;0.63;;;;;;;;;;5094231;28;20031;-87
2022/10/18 14:06:10;;;;;;;0.57;0.50;;;;;;;;;;5094912;28;20036;-86
2022/10/18 14:08:41;;;;;;;0.57;0.55;;;;;;;;;;5112531;28;20015;-86
2022/10/18 14:11:13;;;;;;;0.45;0.43;;;;;;;;;;5114703;28;20038;-86
2022/10/18 14:13:54;;;;;;;2.85;0.63;;;;;;;;;;5095722;28;20031;-86
2022/10/18 14:16:33;;;;;;;0.77;0.60;;;;;;;;;;5096304;28;20059;-85
2022/10/18 14:19:27;;;;;;;0.30;0.30;;;;;;;;;;5114344;28;20153;-86
2022/10/18 14:22:03;;;;;;;4.43;0.98;;;;;;;;;;5106070;28;20035;-85
2022/10/18 14:24:30;;;;;;;2.60;0.70;;;;;;;;;;5094111;28;20110;-83
2022/10/18 14:27:21;;;;;;;1.42;0.77;;;;;;;;;;5114277;28;20031;-83
2022/10/18 14:29:49;;;;;;;0.38;0.38;;;;;;;;;;5113536;28;20044;-85
2022/10/18 14:32:27;;;;;;;1.45;0.70;;;;;;;;;;5095420;28;20803;-87
2022/10/18 14:34:54;;;;;;;1.13;0.30;;;;;;;;;;5113376;28;20023;-84
2022/10/18 14:37:30;;;;;;;0.25;0.25;;;;;;;;;;5113565;28;20032;-84
2022/10/18 14:39:55;;;;;;;0.82;0.75;;;;;;;;;;5114190;28;20035;-83
2022/10/18 14:42:23;;;;;;;1.40;0.98;;;;;;;;;;5095851;28;20016;-85
2022/10/18 14:44:50;;;;;;;0.65;0.60;;;;;;;;;;5094633;28;20459;-86
2022/10/18 14:47:20;;;;;;;0.77;0.50;;;;;;;;;;5113963;28;20027;-85
2022/10/18 14:49:46;;;;;;;0.38;0.30;;;;;;;;;;5095748;28;20046;-84
2022/10/18 14:52:22;;;;;;;0.50;0.40;;;;;;;;;;5095527;28;20394;-86
2022/10/18 14:54:48;;;;;;;2.08;0.52;;;;;;;;;;5113902;28;20036;-85
2022/10/18 14:57:44;;;;;;;0.10;0.10;;;;;;;;;;5095145;28;20048;-84
2022/10/18 15:00:32;;;;;;;0.95;0.75;;;;;;;;;;5078224;28;20051;-84
2022/10/18 15:02:58;;;;;;;0.32;0.32;;;;;;;;;;5094302;28;20103;-85
2022/10/18 15:05:25;;;;;;;0.40;0.20;;;;;;;;;;5095253;28;20061;-86
2022/10/18 15:07:52;;;;;;;0.22;0.22;;;;;;;;;;5092960;28;20020;-86
2022/10/18 15:10:22;;;;;;;1.33;0.80;;;;;;;;;;5095006;28;20024;-86